Terminal Aerodrome Forecast
Issued by NWS

Home | Current Version | Previous Version | Text Only | Print | Product List | Glossary On
Versions: 1 2 3 4 5 6 7 8 9 10 11 12 13 14 15
199
FTUS43 KEAX 031120
TAFMKC
TAF
KMKC 031120Z 0312/0412 09005KT P6SM BKN100
     FM040200 14004KT P6SM VCSH OVC025
     FM040600 16003KT 5SM -SHRA OVC015=

USA.gov is the U.S. government's official web portal to all federal, state and local government web resources and services.